createdAt,value
2018-06-30T00:00:24.466Z,0.00
2018-06-30T00:01:23.839Z,0.00
2018-06-30T00:02:23.896Z,0.00
2018-06-30T00:03:44.913Z,0.00
2018-06-30T00:04:23.936Z,0.00
2018-06-30T00:05:23.957Z,0.00
2018-06-30T00:06:23.988Z,0.00
2018-06-30T00:07:24.030Z,0.00
2018-06-30T00:08:24.041Z,0.00
2018-06-30T00:09:45.113Z,0.00
2018-06-30T00:10:24.158Z,0.00
2018-06-30T00:11:24.197Z,0.00
2018-06-30T00:12:24.147Z,0.00
2018-06-30T00:13:24.190Z,0.00
2018-06-30T00:14:24.217Z,0.00
2018-06-30T00:15:45.255Z,0.00
2018-06-30T00:16:24.274Z,0.00
2018-06-30T00:17:24.305Z,0.00
2018-06-30T00:18:24.337Z,0.00
2018-06-30T00:19:24.361Z,0.00
2018-06-30T00:20:24.395Z,0.00
2018-06-30T00:21:45.441Z,0.00
2018-06-30T00:22:24.449Z,0.00
2018-06-30T00:23:24.468Z,0.00
2018-06-30T00:24:24.504Z,0.00
2018-06-30T00:25:24.536Z,0.00
2018-06-30T00:26:24.570Z,0.00
2018-06-30T00:27:45.616Z,0.00
2018-06-30T00:28:24.634Z,0.00
2018-06-30T00:29:24.645Z,0.00
2018-06-30T00:30:24.674Z,0.00
2018-06-30T00:31:24.689Z,0.00
2018-06-30T00:32:25.037Z,0.00
2018-06-30T00:33:45.843Z,0.00
2018-06-30T00:34:24.792Z,0.00
2018-06-30T00:35:25.208Z,0.00
2018-06-30T00:36:24.864Z,0.00
2018-06-30T00:37:24.878Z,0.00
2018-06-30T00:38:25.178Z,0.00
2018-06-30T00:39:46.084Z,0.00
2018-06-30T00:40:25.250Z,0.00
2018-06-30T00:41:25.261Z,0.00
2018-06-30T00:42:25.013Z,0.00
2018-06-30T00:43:25.320Z,0.00
2018-06-30T00:44:25.079Z,0.00
2018-06-30T00:45:46.124Z,0.00
2018-06-30T00:46:26.096Z,0.00
2018-06-30T00:47:25.171Z,0.00
2018-06-30T00:48:25.808Z,0.00
2018-06-30T00:49:25.220Z,0.00
2018-06-30T00:50:25.251Z,0.00
2018-06-30T00:51:46.303Z,0.00
2018-06-30T00:52:25.320Z,0.00
2018-06-30T00:53:25.341Z,0.00
2018-06-30T00:54:25.364Z,0.00
2018-06-30T00:55:25.384Z,0.00
2018-06-30T00:56:25.413Z,0.00
2018-06-30T00:57:46.471Z,0.00
2018-06-30T00:58:25.478Z,0.00
2018-06-30T00:59:25.525Z,0.00
2018-06-30T01:00:25.553Z,0.00
2018-06-30T01:01:25.557Z,0.00
2018-06-30T01:02:25.596Z,0.00
2018-06-30T01:03:46.631Z,0.00
2018-06-30T01:04:25.679Z,0.00
2018-06-30T01:05:25.740Z,0.00
2018-06-30T01:06:25.698Z,0.00
2018-06-30T01:07:25.727Z,0.00
2018-06-30T01:08:25.763Z,0.00
2018-06-30T01:09:46.805Z,0.00
2018-06-30T01:10:25.817Z,0.00
2018-06-30T01:11:26.489Z,0.00
2018-06-30T01:12:25.869Z,0.00
2018-06-30T01:13:25.921Z,0.00
2018-06-30T01:14:25.930Z,0.00
2018-06-30T01:15:46.980Z,0.00
2018-06-30T01:16:26.000Z,0.00
2018-06-30T01:17:26.016Z,0.00
2018-06-30T01:18:26.050Z,0.00
2018-06-30T01:19:26.125Z,0.00
2018-06-30T01:20:26.099Z,0.00
2018-06-30T01:21:47.158Z,0.00
2018-06-30T01:22:26.169Z,0.00
2018-06-30T01:23:26.187Z,0.00
2018-06-30T01:24:26.251Z,0.00
2018-06-30T01:25:26.237Z,0.00
2018-06-30T01:26:26.274Z,0.00
2018-06-30T01:27:47.313Z,0.00
2018-06-30T01:28:26.325Z,0.00
2018-06-30T01:29:26.361Z,0.00
2018-06-30T01:30:26.392Z,0.00
2018-06-30T01:31:26.417Z,0.00
2018-06-30T01:32:26.447Z,0.00
2018-06-30T01:33:47.495Z,0.00
2018-06-30T01:34:26.494Z,0.00
2018-06-30T01:35:26.540Z,0.00
2018-06-30T01:36:26.551Z,0.00
2018-06-30T01:37:26.587Z,0.00
2018-06-30T01:38:26.613Z,0.00
2018-06-30T01:39:47.666Z,0.00
2018-06-30T01:40:26.673Z,0.00
2018-06-30T01:41:26.693Z,0.00
2018-06-30T01:42:26.733Z,0.00
2018-06-30T01:43:26.767Z,0.00
2018-06-30T01:44:26.781Z,0.00
2018-06-30T01:45:47.843Z,0.00
2018-06-30T01:46:26.837Z,0.00
2018-06-30T01:47:26.866Z,0.00
2018-06-30T01:48:26.903Z,0.00
2018-06-30T01:49:26.926Z,0.00
2018-06-30T01:50:26.961Z,0.00
2018-06-30T01:51:47.996Z,0.00
2018-06-30T01:52:27.010Z,0.00
2018-06-30T01:53:27.056Z,0.00
2018-06-30T01:54:27.061Z,0.00
2018-06-30T01:55:27.096Z,0.00
2018-06-30T01:56:27.127Z,0.00
2018-06-30T01:57:48.175Z,0.00
2018-06-30T01:58:27.180Z,0.00
2018-06-30T01:59:27.219Z,0.00
2018-06-30T02:00:27.238Z,0.00
2018-06-30T02:01:27.276Z,0.00
2018-06-30T02:02:27.289Z,0.00
2018-06-30T02:03:48.351Z,0.00
2018-06-30T02:04:27.381Z,0.00
2018-06-30T02:05:27.384Z,0.00
2018-06-30T02:06:27.446Z,0.00
2018-06-30T02:07:27.448Z,0.00
2018-06-30T02:08:27.456Z,0.00
2018-06-30T02:09:48.511Z,0.00
2018-06-30T02:10:27.517Z,0.00
2018-06-30T02:11:27.550Z,0.00
2018-06-30T02:12:27.579Z,0.00
2018-06-30T02:13:27.626Z,0.00
2018-06-30T02:14:27.634Z,0.00
2018-06-30T02:15:48.675Z,0.00
2018-06-30T02:16:27.690Z,0.00
2018-06-30T02:17:27.713Z,0.00
2018-06-30T02:18:27.770Z,0.00
2018-06-30T02:19:27.780Z,0.00
2018-06-30T02:20:27.800Z,4.00
2018-06-30T02:21:48.850Z,0.00
2018-06-30T02:22:27.862Z,0.00
2018-06-30T02:23:27.889Z,0.00
2018-06-30T02:24:28.518Z,0.00
2018-06-30T02:25:27.946Z,0.00
2018-06-30T02:26:27.983Z,4.00
2018-06-30T02:27:49.030Z,4.00
2018-06-30T02:28:28.050Z,0.00
2018-06-30T02:29:28.061Z,0.00
2018-06-30T02:30:28.087Z,4.00
2018-06-30T02:31:28.106Z,4.00
2018-06-30T02:32:28.147Z,0.00
2018-06-30T02:33:49.183Z,4.00
2018-06-30T02:34:28.198Z,4.00
2018-06-30T02:35:28.251Z,4.00
2018-06-30T02:36:28.248Z,4.00
2018-06-30T02:37:28.285Z,4.00
2018-06-30T02:38:28.322Z,8.00
2018-06-30T02:39:49.364Z,4.00
2018-06-30T02:40:28.370Z,4.00
2018-06-30T02:41:28.397Z,8.00
2018-06-30T02:42:28.421Z,4.00
2018-06-30T02:43:28.482Z,8.00
2018-06-30T02:44:28.490Z,4.00
2018-06-30T02:45:49.581Z,8.00
2018-06-30T02:48:10.613Z,12.00
2018-06-30T02:49:10.497Z,12.00
2018-06-30T02:50:10.695Z,12.00
2018-06-30T02:51:10.545Z,12.00
2018-06-30T02:52:31.593Z,12.00
2018-06-30T02:53:10.929Z,16.00
2018-06-30T02:54:10.621Z,12.00
2018-06-30T02:55:11.602Z,16.00
2018-06-30T02:56:11.140Z,16.00
2018-06-30T02:57:10.716Z,16.00
2018-06-30T02:58:31.757Z,20.00
2018-06-30T02:59:10.764Z,20.00
2018-06-30T03:00:10.794Z,20.00
2018-06-30T03:01:11.302Z,24.00
2018-06-30T03:02:10.856Z,24.00
2018-06-30T03:03:11.686Z,28.00
2018-06-30T03:04:31.965Z,24.00
2018-06-30T03:05:10.936Z,24.00
2018-06-30T03:06:11.149Z,28.00
2018-06-30T03:07:10.993Z,28.00
2018-06-30T03:08:11.018Z,32.00
2018-06-30T03:09:11.411Z,32.00
2018-06-30T03:10:32.100Z,36.00
2018-06-30T03:11:11.171Z,32.00
2018-06-30T03:12:11.437Z,36.00
2018-06-30T03:13:11.166Z,36.00
2018-06-30T03:14:11.659Z,36.00
2018-06-30T03:15:11.218Z,40.00
2018-06-30T03:16:32.275Z,44.00
2018-06-30T03:17:11.811Z,40.00
2018-06-30T03:18:11.307Z,44.00
2018-06-30T03:19:11.503Z,48.00
2018-06-30T03:20:11.498Z,48.00
2018-06-30T03:21:11.378Z,48.00
2018-06-30T03:22:32.430Z,48.00
2018-06-30T03:23:11.589Z,52.00
2018-06-30T03:24:11.514Z,52.00
2018-06-30T03:25:11.497Z,56.00
2018-06-30T03:26:11.530Z,60.00
2018-06-30T03:27:11.575Z,60.00
2018-06-30T03:28:32.598Z,64.00
2018-06-30T03:29:11.625Z,64.00
2018-06-30T03:30:11.633Z,68.00
2018-06-30T03:31:11.667Z,64.00
2018-06-30T03:32:11.686Z,68.00
2018-06-30T03:33:11.718Z,72.00
2018-06-30T03:34:32.760Z,68.00
2018-06-30T03:35:11.767Z,72.00
2018-06-30T03:36:11.814Z,72.00
2018-06-30T03:37:11.826Z,76.00
2018-06-30T03:38:12.534Z,76.00
2018-06-30T03:39:11.899Z,80.00
2018-06-30T03:40:32.927Z,84.00
2018-06-30T03:41:11.952Z,88.00
2018-06-30T03:42:11.987Z,88.00
2018-06-30T03:43:12.011Z,92.00
2018-06-30T03:44:12.020Z,92.00
2018-06-30T03:45:12.042Z,96.00
2018-06-30T03:46:33.104Z,96.00
2018-06-30T03:47:12.112Z,100.00
2018-06-30T03:48:12.136Z,100.00
2018-06-30T03:49:12.232Z,100.00
2018-06-30T03:50:12.188Z,104.00
2018-06-30T03:51:12.269Z,112.00
2018-06-30T03:52:33.270Z,120.00
2018-06-30T03:53:12.281Z,124.00
2018-06-30T03:54:13.137Z,124.00
2018-06-30T03:55:12.334Z,136.00
2018-06-30T03:56:12.359Z,140.00
2018-06-30T03:57:12.700Z,148.00
2018-06-30T03:58:33.431Z,152.00
2018-06-30T03:59:12.590Z,160.00
2018-06-30T04:00:12.470Z,172.00
2018-06-30T04:01:12.496Z,180.00
2018-06-30T04:02:12.638Z,188.00
2018-06-30T04:03:12.556Z,200.00
2018-06-30T04:04:33.594Z,208.00
2018-06-30T04:05:12.712Z,220.00
2018-06-30T04:06:12.638Z,224.00
2018-06-30T04:07:12.671Z,232.00
2018-06-30T04:08:12.690Z,232.00
2018-06-30T04:09:12.732Z,232.00
2018-06-30T04:10:33.824Z,248.00
2018-06-30T04:11:12.837Z,256.00
2018-06-30T04:12:12.810Z,260.00
2018-06-30T04:13:12.837Z,272.00
2018-06-30T04:14:12.862Z,268.00
2018-06-30T04:15:12.903Z,268.00
2018-06-30T04:16:33.932Z,284.00
2018-06-30T04:17:12.951Z,296.00
2018-06-30T04:18:13.006Z,304.00
2018-06-30T04:19:13.010Z,320.00
2018-06-30T04:20:13.036Z,336.00
2018-06-30T04:21:13.063Z,352.00
2018-06-30T04:22:34.107Z,372.00
2018-06-30T04:23:13.132Z,408.00
2018-06-30T04:24:13.143Z,404.00
2018-06-30T04:25:13.172Z,412.00
2018-06-30T04:26:13.196Z,420.00
2018-06-30T04:27:13.226Z,428.00
2018-06-30T04:28:34.268Z,440.00
2018-06-30T04:29:13.279Z,436.00
2018-06-30T04:30:13.308Z,452.00
2018-06-30T04:31:13.413Z,480.00
2018-06-30T04:32:13.362Z,460.00
2018-06-30T04:33:13.404Z,484.00
2018-06-30T04:34:34.444Z,512.00
2018-06-30T04:35:13.447Z,528.00
2018-06-30T04:36:13.470Z,536.00
2018-06-30T04:37:13.504Z,576.00
2018-06-30T04:38:13.530Z,604.00
2018-06-30T04:39:13.566Z,620.00
2018-06-30T04:40:34.614Z,608.00
2018-06-30T04:41:13.623Z,644.00
2018-06-30T04:42:13.711Z,636.00
2018-06-30T04:43:13.674Z,644.00
2018-06-30T04:44:13.732Z,672.00
2018-06-30T04:45:13.790Z,748.00
2018-06-30T04:46:34.777Z,704.00
2018-06-30T04:47:13.783Z,752.00
2018-06-30T04:48:13.812Z,732.00
2018-06-30T04:49:13.842Z,760.00
2018-06-30T04:50:13.872Z,820.00
2018-06-30T04:51:14.528Z,824.00
2018-06-30T04:52:34.943Z,832.00
2018-06-30T04:53:13.978Z,908.00
2018-06-30T04:54:13.991Z,836.00
2018-06-30T04:55:14.014Z,872.00
2018-06-30T04:56:14.043Z,924.00
2018-06-30T04:57:14.062Z,960.00
2018-06-30T04:58:35.117Z,1020.00
2018-06-30T04:59:14.113Z,1076.00
2018-06-30T05:00:14.146Z,1048.00
2018-06-30T05:01:14.179Z,1156.00
2018-06-30T05:02:14.223Z,1076.00
2018-06-30T05:03:14.231Z,1072.00
2018-06-30T05:04:35.280Z,1092.00
2018-06-30T05:05:14.295Z,1132.00
2018-06-30T05:06:14.323Z,1152.00
2018-06-30T05:07:14.355Z,1116.00
2018-06-30T05:08:14.619Z,1192.00
2018-06-30T05:09:14.398Z,1060.00
2018-06-30T05:10:35.505Z,1132.00
2018-06-30T05:11:14.464Z,1136.00
2018-06-30T05:12:14.484Z,1112.00
2018-06-30T05:13:14.520Z,1076.00
2018-06-30T05:14:14.544Z,1060.00
2018-06-30T05:15:14.571Z,1536.00
2018-06-30T05:16:35.625Z,1136.00
2018-06-30T05:17:14.639Z,1012.00
2018-06-30T05:18:14.717Z,1060.00
2018-06-30T05:19:14.692Z,920.00
2018-06-30T05:20:14.709Z,904.00
2018-06-30T05:21:14.737Z,904.00
2018-06-30T05:22:35.877Z,1168.00
2018-06-30T05:23:14.803Z,964.00
2018-06-30T05:24:14.840Z,864.00
2018-06-30T05:25:14.872Z,912.00
2018-06-30T05:26:14.882Z,860.00
2018-06-30T05:27:14.914Z,888.00
2018-06-30T05:28:35.953Z,800.00
2018-06-30T05:29:14.973Z,816.00
2018-06-30T05:30:15.006Z,1204.00
2018-06-30T05:31:15.019Z,1160.00
2018-06-30T05:32:15.049Z,848.00
2018-06-30T05:33:15.150Z,740.00
2018-06-30T05:34:36.128Z,880.00
2018-06-30T05:35:15.147Z,764.00
2018-06-30T05:36:15.178Z,768.00
2018-06-30T05:37:15.220Z,768.00
2018-06-30T05:38:15.225Z,784.00
2018-06-30T05:39:15.263Z,1032.00
2018-06-30T05:40:36.302Z,796.00
2018-06-30T05:41:15.364Z,736.00
2018-06-30T05:42:15.386Z,820.00
2018-06-30T05:43:15.369Z,740.00
2018-06-30T05:44:15.475Z,700.00
2018-06-30T05:45:15.416Z,944.00
2018-06-30T05:46:36.475Z,1224.00
2018-06-30T05:47:15.484Z,812.00
2018-06-30T05:48:15.510Z,680.00
2018-06-30T05:49:15.548Z,848.00
2018-06-30T05:50:15.590Z,732.00
2018-06-30T05:51:15.595Z,712.00
2018-06-30T05:52:36.631Z,692.00
2018-06-30T05:53:16.633Z,724.00
2018-06-30T05:54:15.858Z,696.00
2018-06-30T05:55:15.802Z,704.00
2018-06-30T05:56:15.725Z,728.00
2018-06-30T05:57:15.767Z,748.00
2018-06-30T05:58:36.823Z,776.00
2018-06-30T05:59:15.840Z,784.00
2018-06-30T06:00:15.846Z,844.00
2018-06-30T06:01:15.885Z,824.00
2018-06-30T06:02:15.912Z,976.00
2018-06-30T06:03:15.936Z,884.00
2018-06-30T06:04:36.975Z,1044.00
2018-06-30T06:05:15.986Z,800.00
2018-06-30T06:06:16.091Z,980.00
2018-06-30T06:07:16.044Z,1036.00
2018-06-30T06:08:16.078Z,804.00
2018-06-30T06:09:16.106Z,868.00
2018-06-30T06:10:37.148Z,936.00
2018-06-30T06:11:16.180Z,824.00
2018-06-30T06:12:16.195Z,572.00
2018-06-30T06:13:16.228Z,880.00
2018-06-30T06:14:16.246Z,976.00
2018-06-30T06:15:16.363Z,900.00
2018-06-30T06:16:37.313Z,804.00
2018-06-30T06:17:16.345Z,672.00
2018-06-30T06:18:16.354Z,792.00
2018-06-30T06:19:16.384Z,600.00
2018-06-30T06:20:16.431Z,604.00
2018-06-30T06:21:16.504Z,812.00
2018-06-30T06:22:37.496Z,608.00
2018-06-30T06:23:16.508Z,628.00
2018-06-30T06:24:16.528Z,644.00
2018-06-30T06:25:16.554Z,640.00
2018-06-30T06:26:16.579Z,644.00
2018-06-30T06:27:16.604Z,572.00
2018-06-30T06:28:37.657Z,732.00
2018-06-30T06:29:16.659Z,656.00
2018-06-30T06:30:16.879Z,624.00
2018-06-30T06:31:16.779Z,616.00
2018-06-30T06:32:16.762Z,872.00
2018-06-30T06:33:16.785Z,612.00
2018-06-30T06:34:38.102Z,596.00
2018-06-30T06:35:16.841Z,596.00
2018-06-30T06:36:17.092Z,596.00
2018-06-30T06:37:16.897Z,636.00
2018-06-30T06:38:16.927Z,596.00
2018-06-30T06:39:17.440Z,600.00
2018-06-30T06:40:38.228Z,668.00
2018-06-30T06:41:17.013Z,648.00
2018-06-30T06:42:17.782Z,608.00
2018-06-30T06:43:17.064Z,652.00
2018-06-30T06:44:17.434Z,644.00
2018-06-30T06:45:17.120Z,2336.00
2018-06-30T06:46:38.173Z,624.00
2018-06-30T06:47:17.165Z,704.00
2018-06-30T06:48:17.195Z,668.00
2018-06-30T06:49:17.242Z,1940.00
2018-06-30T06:50:17.382Z,664.00
2018-06-30T06:51:17.302Z,612.00
2018-06-30T06:52:38.351Z,696.00
2018-06-30T06:53:17.354Z,760.00
2018-06-30T06:54:17.376Z,1552.00
2018-06-30T06:55:18.127Z,668.00
2018-06-30T06:56:17.463Z,684.00
2018-06-30T06:57:17.512Z,656.00
2018-06-30T06:58:38.570Z,664.00
2018-06-30T06:59:17.522Z,596.00
2018-06-30T07:00:17.691Z,752.00
2018-06-30T07:01:17.580Z,780.00
2018-06-30T07:02:17.604Z,616.00
2018-06-30T07:03:17.697Z,656.00
2018-06-30T07:04:38.989Z,848.00
2018-06-30T07:05:17.703Z,652.00
2018-06-30T07:06:17.889Z,932.00
2018-06-30T07:07:17.756Z,620.00
2018-06-30T07:08:18.328Z,868.00
2018-06-30T07:09:17.803Z,632.00
2018-06-30T07:10:38.857Z,648.00
2018-06-30T07:11:17.879Z,676.00
2018-06-30T07:12:17.884Z,732.00
2018-06-30T07:13:17.924Z,672.00
2018-06-30T07:14:17.937Z,728.00
2018-06-30T07:15:17.982Z,668.00
2018-06-30T07:16:39.020Z,680.00
2018-06-30T07:17:18.053Z,1144.00
2018-06-30T07:18:18.054Z,824.00
2018-06-30T07:19:18.156Z,744.00
2018-06-30T07:20:18.130Z,712.00
2018-06-30T07:21:18.144Z,1188.00
2018-06-30T07:22:39.197Z,988.00
2018-06-30T07:23:18.201Z,796.00
2018-06-30T07:24:18.234Z,708.00
2018-06-30T07:25:18.293Z,872.00
2018-06-30T07:26:18.295Z,872.00
2018-06-30T07:27:18.344Z,924.00
2018-06-30T07:28:39.369Z,928.00
2018-06-30T07:29:18.372Z,920.00
2018-06-30T07:30:18.462Z,816.00
2018-06-30T07:31:18.434Z,908.00
2018-06-30T07:32:18.459Z,916.00
2018-06-30T07:33:18.489Z,936.00
2018-06-30T07:34:39.799Z,920.00
2018-06-30T07:35:18.560Z,912.00
2018-06-30T07:36:18.581Z,800.00
2018-06-30T07:37:18.644Z,840.00
2018-06-30T07:38:18.631Z,824.00
2018-06-30T07:39:18.665Z,876.00
2018-06-30T07:40:39.716Z,884.00
2018-06-30T07:41:18.721Z,876.00
2018-06-30T07:42:18.743Z,792.00
2018-06-30T07:43:18.781Z,864.00
2018-06-30T07:44:18.814Z,904.00
2018-06-30T07:45:18.846Z,812.00
2018-06-30T07:46:39.887Z,988.00
2018-06-30T07:47:18.881Z,868.00
2018-06-30T07:48:18.935Z,876.00
2018-06-30T07:49:18.957Z,912.00
2018-06-30T07:50:19.023Z,888.00
2018-06-30T07:51:19.014Z,844.00
2018-06-30T07:52:40.049Z,948.00
2018-06-30T07:53:19.060Z,944.00
2018-06-30T07:54:19.117Z,1044.00
2018-06-30T07:55:19.125Z,936.00
2018-06-30T07:56:19.151Z,932.00
2018-06-30T07:57:19.184Z,812.00
2018-06-30T07:58:40.329Z,1008.00
2018-06-30T07:59:19.242Z,988.00
2018-06-30T08:00:19.264Z,1012.00
2018-06-30T08:01:19.290Z,988.00
2018-06-30T08:02:19.307Z,852.00
2018-06-30T08:03:19.334Z,992.00
2018-06-30T08:04:40.402Z,832.00
2018-06-30T08:05:19.406Z,1020.00
2018-06-30T08:06:19.446Z,964.00
2018-06-30T08:07:19.526Z,1104.00
2018-06-30T08:08:19.592Z,912.00
2018-06-30T08:09:19.522Z,916.00
2018-06-30T08:10:40.783Z,1160.00
2018-06-30T08:11:19.579Z,936.00
2018-06-30T08:12:19.601Z,1156.00
2018-06-30T08:13:19.629Z,868.00
2018-06-30T08:14:19.656Z,1224.00
2018-06-30T08:15:19.706Z,1216.00
2018-06-30T08:16:40.743Z,1044.00
2018-06-30T08:17:19.782Z,1304.00
2018-06-30T08:18:19.768Z,1424.00
2018-06-30T08:19:19.829Z,920.00
2018-06-30T08:20:19.834Z,1076.00
2018-06-30T08:21:19.879Z,1604.00
2018-06-30T08:22:40.916Z,1540.00
2018-06-30T08:23:19.935Z,1784.00
2018-06-30T08:24:19.956Z,680.00
2018-06-30T08:25:20.011Z,504.00
2018-06-30T08:26:20.100Z,1764.00
2018-06-30T08:27:20.064Z,1912.00
2018-06-30T08:28:41.086Z,1996.00
2018-06-30T08:29:20.093Z,1716.00
2018-06-30T08:30:20.134Z,1928.00
2018-06-30T08:31:20.193Z,596.00
2018-06-30T08:32:20.185Z,2044.00
2018-06-30T08:33:20.201Z,1528.00
2018-06-30T08:34:41.254Z,584.00
2018-06-30T08:35:20.267Z,568.00
2018-06-30T08:36:20.359Z,2044.00
2018-06-30T08:37:20.339Z,1968.00
2018-06-30T08:38:20.355Z,548.00
2018-06-30T08:39:20.379Z,532.00
2018-06-30T08:40:41.425Z,1600.00
2018-06-30T08:41:20.443Z,1912.00
2018-06-30T08:42:20.467Z,1580.00
2018-06-30T08:43:20.506Z,492.00
2018-06-30T08:44:20.536Z,428.00
2018-06-30T08:45:20.572Z,700.00
2018-06-30T08:46:41.606Z,1260.00
2018-06-30T08:47:20.635Z,616.00
2018-06-30T08:48:20.666Z,628.00
2018-06-30T08:49:20.659Z,668.00
2018-06-30T08:50:20.697Z,2052.00
2018-06-30T08:51:20.741Z,692.00
2018-06-30T08:52:41.777Z,716.00
2018-06-30T08:53:20.824Z,1016.00
2018-06-30T08:54:20.882Z,2048.00
2018-06-30T08:55:20.907Z,1080.00
2018-06-30T08:56:20.874Z,660.00
2018-06-30T08:57:20.896Z,644.00
2018-06-30T08:58:41.964Z,812.00
2018-06-30T08:59:20.972Z,736.00
2018-06-30T09:00:20.998Z,2084.00
2018-06-30T09:01:21.017Z,2152.00
2018-06-30T09:02:21.147Z,1200.00
2018-06-30T09:03:21.069Z,768.00
2018-06-30T09:04:42.126Z,688.00
2018-06-30T09:05:21.147Z,772.00
2018-06-30T09:06:21.181Z,704.00
2018-06-30T09:07:21.186Z,588.00
2018-06-30T09:08:21.234Z,516.00
2018-06-30T09:09:21.245Z,444.00
2018-06-30T09:10:42.329Z,536.00
2018-06-30T09:11:21.324Z,608.00
2018-06-30T09:12:21.500Z,616.00
2018-06-30T09:13:21.362Z,636.00
2018-06-30T09:14:21.421Z,1668.00
2018-06-30T09:15:21.433Z,1296.00
2018-06-30T09:16:42.476Z,920.00
2018-06-30T09:17:21.480Z,1660.00
2018-06-30T09:18:21.508Z,1856.00
2018-06-30T09:19:21.570Z,1144.00
2018-06-30T09:20:21.627Z,2508.00
2018-06-30T09:21:21.598Z,1560.00
2018-06-30T09:22:42.638Z,1940.00
2018-06-30T09:23:21.734Z,2104.00
2018-06-30T09:24:21.695Z,1932.00
2018-06-30T09:25:21.707Z,852.00
2018-06-30T09:26:21.748Z,656.00
2018-06-30T09:27:21.784Z,876.00
2018-06-30T09:28:42.849Z,2324.00
2018-06-30T09:29:21.836Z,1080.00
2018-06-30T09:30:21.914Z,1024.00
2018-06-30T09:31:21.883Z,1160.00
2018-06-30T09:32:21.937Z,944.00
2018-06-30T09:33:21.949Z,924.00
2018-06-30T09:34:43.000Z,1076.00
2018-06-30T09:35:22.003Z,1380.00
2018-06-30T09:36:22.067Z,1340.00
2018-06-30T09:37:22.082Z,1608.00
2018-06-30T09:38:22.098Z,1652.00
2018-06-30T09:39:22.133Z,1620.00
2018-06-30T09:40:43.201Z,1908.00
2018-06-30T09:41:22.207Z,1392.00
2018-06-30T09:42:22.223Z,1296.00
2018-06-30T09:43:22.249Z,1348.00
2018-06-30T09:44:22.330Z,1268.00
2018-06-30T09:45:22.299Z,1140.00
2018-06-30T09:46:43.352Z,1120.00
2018-06-30T09:47:22.351Z,1084.00
2018-06-30T09:48:22.389Z,996.00
2018-06-30T09:49:22.414Z,1076.00
2018-06-30T09:50:22.445Z,956.00
2018-06-30T09:51:22.493Z,836.00
2018-06-30T09:52:43.533Z,1092.00
2018-06-30T09:53:22.548Z,1212.00
2018-06-30T09:54:22.587Z,1372.00
2018-06-30T09:55:22.596Z,1344.00
2018-06-30T09:56:22.641Z,1244.00
2018-06-30T09:57:22.651Z,1944.00
2018-06-30T09:58:43.851Z,1612.00
2018-06-30T09:59:22.712Z,2152.00
2018-06-30T10:00:22.746Z,4012.00
2018-06-30T10:01:22.765Z,1856.00
2018-06-30T10:02:22.820Z,3200.00
2018-06-30T10:03:22.821Z,5488.00
2018-06-30T10:04:43.888Z,3444.00
2018-06-30T10:05:22.905Z,6644.00
2018-06-30T10:06:22.916Z,2752.00
2018-06-30T10:07:22.951Z,7088.00
2018-06-30T10:08:22.964Z,2156.00
2018-06-30T10:09:22.993Z,1416.00
2018-06-30T10:10:44.071Z,9536.00
2018-06-30T10:11:23.052Z,4568.00
2018-06-30T10:12:23.098Z,2772.00
2018-06-30T10:13:23.111Z,3884.00
2018-06-30T10:14:23.140Z,2520.00
2018-06-30T10:15:23.178Z,3396.00
2018-06-30T10:16:44.219Z,6260.00
2018-06-30T10:17:23.237Z,8308.00
2018-06-30T10:18:23.276Z,2880.00
2018-06-30T10:19:26.423Z,9120.00
2018-06-30T10:20:23.338Z,9332.00
2018-06-30T10:21:23.377Z,9416.00
2018-06-30T10:22:44.430Z,1388.00
2018-06-30T10:23:23.433Z,9764.00
2018-06-30T10:24:23.453Z,2252.00
2018-06-30T10:25:23.485Z,2868.00
2018-06-30T10:26:23.502Z,9228.00
2018-06-30T10:27:23.557Z,9376.00
2018-06-30T10:28:44.593Z,9416.00
2018-06-30T10:29:23.592Z,9660.00
2018-06-30T10:30:23.747Z,9944.00
2018-06-30T10:31:23.694Z,9916.00
2018-06-30T10:32:23.712Z,9660.00
2018-06-30T10:33:23.720Z,10628.00
2018-06-30T10:34:44.776Z,1112.00
2018-06-30T10:35:23.770Z,1076.00
2018-06-30T10:36:23.803Z,6944.00
2018-06-30T10:37:23.883Z,10928.00
2018-06-30T10:38:23.862Z,10344.00
2018-06-30T10:39:24.037Z,9784.00
2018-06-30T10:40:44.965Z,7292.00
2018-06-30T10:41:24.000Z,9656.00
2018-06-30T10:42:24.104Z,9552.00
2018-06-30T10:43:24.031Z,9464.00
2018-06-30T10:44:24.113Z,9760.00
2018-06-30T10:45:24.142Z,9780.00
2018-06-30T10:46:45.170Z,744.00
2018-06-30T10:47:24.166Z,824.00
2018-06-30T10:48:24.243Z,816.00
2018-06-30T10:49:24.211Z,1268.00
2018-06-30T10:50:24.272Z,10348.00
2018-06-30T10:51:24.270Z,10268.00
2018-06-30T10:52:45.362Z,10416.00
2018-06-30T10:53:24.348Z,10500.00
2018-06-30T10:54:24.397Z,10512.00
2018-06-30T10:55:24.425Z,11156.00
2018-06-30T10:56:24.427Z,10088.00
2018-06-30T10:57:24.466Z,10932.00
2018-06-30T10:58:45.540Z,11456.00
2018-06-30T10:59:24.521Z,1560.00
2018-06-30T11:00:24.583Z,1476.00
2018-06-30T11:01:24.597Z,2284.00
2018-06-30T11:02:24.617Z,1840.00
2018-06-30T11:03:24.666Z,1004.00
2018-06-30T11:04:45.727Z,1204.00
2018-06-30T11:05:24.736Z,2420.00
2018-06-30T11:06:25.750Z,2368.00
2018-06-30T11:07:24.790Z,3976.00
2018-06-30T11:08:24.825Z,14212.00
2018-06-30T11:09:24.851Z,11192.00
2018-06-30T11:10:45.903Z,1260.00
2018-06-30T11:11:24.915Z,992.00
2018-06-30T11:12:25.035Z,872.00
2018-06-30T11:13:24.968Z,944.00
2018-06-30T11:14:25.022Z,688.00
2018-06-30T11:15:25.045Z,552.00
2018-06-30T11:16:46.079Z,460.00
2018-06-30T11:17:25.144Z,436.00
2018-06-30T11:18:25.142Z,424.00
2018-06-30T11:19:25.163Z,448.00
2018-06-30T11:20:25.193Z,444.00
2018-06-30T11:21:25.247Z,460.00
2018-06-30T11:22:46.290Z,408.00
2018-06-30T11:23:25.288Z,360.00
2018-06-30T11:24:25.311Z,384.00
2018-06-30T11:25:25.351Z,468.00
2018-06-30T11:26:25.385Z,680.00
2018-06-30T11:27:25.414Z,1176.00
2018-06-30T11:28:46.471Z,1612.00
2018-06-30T11:29:25.499Z,1356.00
2018-06-30T11:30:25.502Z,1372.00
2018-06-30T11:31:25.570Z,1924.00
2018-06-30T11:32:25.579Z,1840.00
2018-06-30T11:33:25.625Z,1328.00
2018-06-30T11:34:46.678Z,1180.00
2018-06-30T11:35:25.715Z,1612.00
2018-06-30T11:36:25.718Z,1536.00
2018-06-30T11:37:26.687Z,1456.00
2018-06-30T11:38:25.752Z,1568.00
2018-06-30T11:39:25.832Z,1504.00
2018-06-30T11:40:46.844Z,1696.00
2018-06-30T11:41:25.850Z,1940.00
2018-06-30T11:42:25.895Z,2100.00
2018-06-30T11:43:25.922Z,1680.00
2018-06-30T11:44:25.959Z,1580.00
2018-06-30T11:45:25.991Z,1320.00
2018-06-30T11:46:47.011Z,1044.00
2018-06-30T11:47:26.061Z,968.00
2018-06-30T11:48:26.072Z,1060.00
2018-06-30T11:49:26.108Z,1072.00
2018-06-30T11:50:26.172Z,1144.00
2018-06-30T11:51:26.166Z,1288.00
2018-06-30T11:52:47.214Z,1316.00
2018-06-30T11:53:26.213Z,1300.00
2018-06-30T11:54:26.257Z,1156.00
2018-06-30T11:55:26.279Z,940.00
2018-06-30T11:56:26.311Z,816.00
2018-06-30T11:57:27.188Z,708.00
2018-06-30T11:58:47.400Z,932.00
2018-06-30T11:59:26.482Z,1224.00
2018-06-30T12:00:26.447Z,1516.00
2018-06-30T12:01:26.466Z,1656.00
2018-06-30T12:02:26.477Z,1700.00
2018-06-30T12:03:26.539Z,1576.00
2018-06-30T12:04:47.568Z,1504.00
2018-06-30T12:05:26.571Z,1500.00
2018-06-30T12:06:26.609Z,1316.00
2018-06-30T12:07:26.647Z,1120.00
2018-06-30T12:08:26.671Z,972.00
2018-06-30T12:09:26.732Z,960.00
2018-06-30T12:10:47.763Z,952.00
2018-06-30T12:11:26.782Z,1048.00
2018-06-30T12:12:26.803Z,1176.00
2018-06-30T12:13:26.833Z,1296.00
2018-06-30T12:14:26.849Z,1320.00
2018-06-30T12:15:26.953Z,1368.00
2018-06-30T12:16:48.718Z,1344.00
2018-06-30T12:17:26.949Z,1256.00
2018-06-30T12:18:26.970Z,1140.00
2018-06-30T12:19:27.050Z,1124.00
2018-06-30T12:20:27.056Z,1088.00
2018-06-30T12:21:27.091Z,1096.00
2018-06-30T12:22:48.169Z,1232.00
2018-06-30T12:23:27.134Z,1320.00
2018-06-30T12:24:27.147Z,1432.00
2018-06-30T12:25:27.192Z,1424.00
2018-06-30T12:26:27.214Z,1372.00
2018-06-30T12:27:27.246Z,1324.00
2018-06-30T12:28:48.294Z,1268.00
2018-06-30T12:29:27.318Z,1260.00
2018-06-30T12:30:27.356Z,1200.00
2018-06-30T12:31:27.368Z,1132.00
2018-06-30T12:32:27.433Z,1016.00
2018-06-30T12:33:27.423Z,960.00
2018-06-30T12:34:48.481Z,1000.00